Terminal Aerodrome Forecast
Issued by NWS

Home | Current Version | Previous Version | Text Only | Print | Product List | Glossary On
Versions: 1 2 3 4 5 6 7 8 9 10 11 12 13 14 15
000
FTUS45 KPSR 182300
TAFBLH
TAF
KBLH 182321Z 1900/1924 18009KT P6SM VCSH FEW090 BKN120
     FM190300 18006KT P6SM BKN140
     FM191700 17005KT P6SM FEW140 BKN200=

USA.gov is the U.S. government's official web portal to all federal, state and local government web resources and services.